East Jordan, MI (49727)

9:14 AM EDT on July 04, 2015 (GMT -0400)
2.1 MI NNW of East Jordan(South Field) | | Change Station
CLOSE
Current Station
Personal Weather Station
Location: East Jordan, MI
Elevation: 647 ft
Nearby Weather Stations

Elev 647 ft 45.19 °N, 85.15 °W | Updated 13 seconds ago

Clear
Clear
64.4 °F
Feels Like 64.4 °F
N
1.0
Wind Variable Wind from South
Gusts 4.0 mph

Today
High -- | Low -- °F
--% Chance of Precip.
Yesterday
High -- | Low -- °F
Precip. -- in
5:58 AM 9:30 PM
Waning Gibbous, 92% visible
Pressure 29.98 in
Visibility 10.0 miles
Clouds Clear
Dew Point 56 °F
Humidity 75%
Rainfall 0.00 in
Snow Depth Not available.
UV 3 out of 12
Pollen 4.40 out of 12
Air Quality Not available.
Flu Activity Not available.
METAR KCVX 041255Z AUTO 23003KT 10SM CLR 18/13 A2998 RMK AO2 T01770126

More Conditions Fewer Conditions

Pressure 29.98 in
Visibility 10.0 miles
Clouds Clear
Dew Point 56 °F
Humidity 75%
Rainfall 0.00 in
Snow Depth Not available.
UV 3 out of 12
Pollen 4.40 out of 12
Air Quality Not available.
Flu Activity Not available.
METAR KCVX 041255Z AUTO 23003KT 10SM CLR 18/13 A2998 RMK AO2 T01770126

More Conditions Fewer Conditions

Nowcast | as of 9:00 am EDT on July 4, 2015

At 10 am...mostly clear. Temperature 66. Northwest winds 5 mph. At 12 PM...mostly clear. Temperature 69. Northwest winds 7 mph. At 2 PM...mostly clear. Temperature 67. Northwest winds 8 mph. At 4 PM...mostly clear. Temperature 66. Northwest winds 8 mph.

×

10-Day Weather Forecast

×

Almanac

Astronomy

Jul. 04, 2015 Rise Set
Actual Time
Civil Twilight
Nautical Twilight
Astronomical Twilight
Moon
Length of Visible Light
Length of Day
Tomorrow will be .
, % of the Moon is Illuminated

Today's Extremes

State Highs State Lows

Community

WunderPhotos

Upload Photos

1,834,956 photos uploaded!

WunderBlogs® & News

Nearby

Air Quality

  Air Quality AQ Index Pollutant
Not available.

Snow Depth

Station Depth Elevation

Earthquake Activity

City Distance Mag. Time & Date
Minimum magnitude displayed is 2.5.

Coastal Water Temperatures

Place Temperature

Stations

Nearby Weather Stations

Station Location Temp. Windchill Dew Point Humidity Wind Precip. Elev Updated Type